Time;durP1;ratioP1;P1;durP2;ratioP2;P2;SDS_P1;SDS_P2;PMS_P1;PMS_P2;Temp;Humidity;BMP_temperature;BMP_pressure;BME280_temperature;BME280_humidity;BME280_pressure;Samples;Min_cycle;Max_cycle;Signal;HPM_P1;HPM_P2
2023/04/20 00:00:48;;;;;;;3.45;3.15;;;17.90;71.10;;;;;;5033813;28;20503;-70
2023/04/20 00:03:13;;;;;;;3.30;3.00;;;17.90;71.20;;;;;;5034940;28;20025;-70
2023/04/20 00:05:39;;;;;;;3.53;3.22;;;17.90;71.10;;;;;;5035063;28;20068;-70
2023/04/20 00:08:05;;;;;;;3.75;3.45;;;17.90;71.30;;;;;;5034599;28;20063;-70
2023/04/20 00:10:30;;;;;;;4.28;3.35;;;17.90;71.20;;;;;;5034942;28;20029;-70
2023/04/20 00:12:56;;;;;;;3.90;3.47;;;17.90;71.30;;;;;;5034949;28;20032;-70
2023/04/20 00:15:21;;;;;;;3.50;3.17;;;17.90;71.40;;;;;;5034814;28;20044;-70
2023/04/20 00:17:48;;;;;;;4.10;3.25;;;17.90;71.40;;;;;;5034524;28;20076;-70
2023/04/20 00:20:14;;;;;;;5.63;3.63;;;17.80;71.50;;;;;;5034881;28;20460;-71
2023/04/20 00:22:40;;;;;;;3.28;2.97;;;17.80;71.50;;;;;;5034598;28;20032;-71
2023/04/20 00:25:06;;;;;;;3.70;3.10;;;17.90;71.70;;;;;;5034818;28;20021;-70
2023/04/20 00:27:31;;;;;;;4.28;3.28;;;17.90;71.90;;;;;;5034737;28;20032;-70
2023/04/20 00:29:57;;;;;;;3.97;3.28;;;17.90;72.00;;;;;;5034285;28;20104;-70
2023/04/20 00:32:22;;;;;;;3.90;3.28;;;17.80;72.20;;;;;;5034391;28;20018;-70
2023/04/20 00:34:48;;;;;;;3.88;3.47;;;17.90;72.20;;;;;;5034352;28;20091;-70
2023/04/20 00:37:14;;;;;;;4.10;3.80;;;17.80;72.00;;;;;;5034031;28;20033;-71
2023/04/20 00:39:40;;;;;;;3.78;3.15;;;17.80;72.20;;;;;;5034322;28;20034;-71
2023/04/20 00:42:06;;;;;;;3.28;2.88;;;17.80;72.20;;;;;;5032770;28;20029;-71
2023/04/20 00:44:32;;;;;;;3.50;3.20;;;17.80;72.30;;;;;;5033045;28;20030;-71
2023/04/20 00:46:58;;;;;;;3.83;3.10;;;17.80;72.40;;;;;;5033956;28;20376;-71
2023/04/20 00:49:28;;;;;;;3.42;2.80;;;17.80;72.30;;;;;;5034145;28;20491;-70
2023/04/20 00:51:57;;;;;;;3.90;3.25;;;17.80;72.40;;;;;;5032931;28;20476;-70
2023/04/20 00:54:23;;;;;;;3.15;2.90;;;17.80;72.50;;;;;;5016353;28;20515;-71
2023/04/20 00:56:49;;;;;;;3.28;2.97;;;17.80;72.50;;;;;;5033981;28;20053;-70
2023/04/20 00:59:15;;;;;;;3.20;2.90;;;17.80;72.50;;;;;;5016137;28;20025;-70
2023/04/20 01:01:41;;;;;;;3.40;3.03;;;17.80;72.50;;;;;;5032832;28;20026;-70
2023/04/20 01:04:07;;;;;;;4.57;3.08;;;17.80;72.50;;;;;;5033654;28;20112;-70
2023/04/20 01:06:33;;;;;;;3.33;2.90;;;17.70;72.40;;;;;;5032085;28;20043;-70
2023/04/20 01:08:58;;;;;;;3.05;2.75;;;17.80;72.60;;;;;;5032544;28;20026;-70
2023/04/20 01:11:24;;;;;;;3.10;2.80;;;17.70;72.50;;;;;;5033572;28;20060;-70
2023/04/20 01:13:49;;;;;;;3.65;3.08;;;17.80;72.60;;;;;;5032460;28;20029;-71
2023/04/20 01:16:15;;;;;;;3.28;2.97;;;17.70;72.50;;;;;;5032284;28;20029;-70
2023/04/20 01:18:43;;;;;;;5.30;2.80;;;17.70;72.50;;;;;;5033601;28;20060;-70
2023/04/20 01:21:10;;;;;;;3.17;2.83;;;17.70;72.40;;;;;;5033214;28;20104;-70
2023/04/20 01:23:35;;;;;;;2.90;2.70;;;17.70;72.60;;;;;;5032276;28;20060;-70
2023/04/20 01:26:05;;;;;;;2.97;2.65;;;17.70;72.50;;;;;;5033533;28;20053;-71
2023/04/20 01:28:31;;;;;;;3.05;2.75;;;17.70;72.60;;;;;;5032042;28;20025;-70
2023/04/20 01:30:56;;;;;;;3.20;2.90;;;17.70;72.50;;;;;;5033572;28;20033;-70
2023/04/20 01:33:22;;;;;;;3.95;3.03;;;17.70;72.50;;;;;;5033104;28;20075;-70
2023/04/20 01:35:48;;;;;;;2.85;2.65;;;17.70;72.70;;;;;;5033278;28;20112;-71
2023/04/20 01:38:18;;;;;;;3.30;3.00;;;17.70;72.50;;;;;;5033227;28;20035;-70
2023/04/20 01:40:43;;;;;;;3.65;2.67;;;17.70;72.60;;;;;;5031897;28;20028;-71
2023/04/20 01:43:09;;;;;;;2.75;2.50;;;17.70;72.60;;;;;;5033075;28;20033;-71
2023/04/20 01:45:34;;;;;;;3.03;2.72;;;17.70;72.60;;;;;;5033172;28;20388;-70
2023/04/20 01:48:00;;;;;;;3.00;2.70;;;17.70;72.60;;;;;;5033028;28;20052;-70
2023/04/20 01:50:26;;;;;;;2.78;2.55;;;17.70;72.70;;;;;;5015259;28;20111;-70
2023/04/20 01:52:51;;;;;;;3.05;2.78;;;17.60;72.70;;;;;;5033144;28;20029;-70
2023/04/20 01:55:17;;;;;;;3.25;2.90;;;17.70;72.80;;;;;;5032848;28;20135;-70
2023/04/20 01:57:43;;;;;;;3.05;2.75;;;17.70;72.80;;;;;;5033222;28;20100;-70
2023/04/20 02:00:10;;;;;;;2.95;2.75;;;17.70;72.80;;;;;;5032920;28;20543;-70
2023/04/20 02:02:36;;;;;;;3.35;2.90;;;17.70;73.00;;;;;;5031761;28;20038;-70
2023/04/20 02:05:01;;;;;;;2.90;2.60;;;17.60;72.80;;;;;;5031098;28;20078;-70
2023/04/20 02:07:27;;;;;;;2.92;2.65;;;17.60;72.90;;;;;;5032960;28;20036;-70
2023/04/20 02:09:53;;;;;;;3.03;2.72;;;17.60;73.80;;;;;;5031705;28;20022;-70
2023/04/20 02:12:18;;;;;;;2.85;2.65;;;17.60;72.80;;;;;;5032889;28;20403;-70
2023/04/20 02:14:44;;;;;;;3.08;2.70;;;17.60;72.90;;;;;;5033030;28;20033;-71
2023/04/20 02:17:10;;;;;;;2.70;2.50;;;17.60;73.00;;;;;;5032591;28;20037;-70
2023/04/20 02:19:35;;;;;;;2.85;2.65;;;17.60;73.00;;;;;;5032716;28;20022;-70
2023/04/20 02:22:01;;;;;;;2.85;2.65;;;17.60;73.10;;;;;;5032880;28;20026;-70
2023/04/20 02:24:27;;;;;;;2.70;2.50;;;17.60;73.20;;;;;;5031338;28;20083;-70
2023/04/20 02:26:52;;;;;;;3.45;2.60;;;17.60;73.20;;;;;;5032779;28;20064;-70
2023/04/20 02:29:18;;;;;;;2.65;2.45;;;17.60;73.20;;;;;;5032497;28;20391;-70
2023/04/20 02:31:44;;;;;;;3.33;2.47;;;17.60;73.20;;;;;;5032936;28;20079;-70
2023/04/20 02:34:09;;;;;;;3.00;2.70;;;17.60;73.30;;;;;;5031197;28;20072;-70
2023/04/20 02:36:35;;;;;;;2.80;2.60;;;17.60;73.20;;;;;;5032524;28;20029;-70
2023/04/20 02:39:01;;;;;;;3.67;2.80;;;17.60;73.20;;;;;;5032829;28;20491;-70
2023/04/20 02:41:26;;;;;;;4.10;2.78;;;17.60;73.30;;;;;;5032413;28;20037;-70
2023/04/20 02:43:52;;;;;;;2.53;2.33;;;17.60;73.30;;;;;;5032485;28;20009;-70
2023/04/20 02:46:18;;;;;;;2.80;2.50;;;17.60;73.50;;;;;;5032525;28;20112;-70
2023/04/20 02:48:43;;;;;;;2.63;2.42;;;17.60;73.40;;;;;;5032489;28;20029;-70
2023/04/20 02:51:09;;;;;;;2.78;2.58;;;17.60;73.40;;;;;;5032553;28;20459;-70
2023/04/20 02:53:35;;;;;;;2.45;2.22;;;17.60;73.50;;;;;;5032340;28;20018;-70
2023/04/20 02:56:00;;;;;;;4.78;2.42;;;17.60;73.50;;;;;;5032408;28;20134;-70
2023/04/20 02:58:26;;;;;;;3.83;2.95;;;17.60;73.40;;;;;;5032544;28;20422;-70
2023/04/20 03:00:57;;;;;;;3.20;2.65;;;17.60;73.50;;;;;;5032614;28;20068;-71
2023/04/20 03:03:23;;;;;;;3.50;2.20;;;17.60;73.50;;;;;;5032408;28;20025;-70
2023/04/20 03:05:48;;;;;;;2.60;2.40;;;17.60;73.50;;;;;;5031165;28;20036;-70
2023/04/20 03:08:14;;;;;;;2.75;2.53;;;17.50;73.50;;;;;;5031223;28;20067;-70
2023/04/20 03:10:39;;;;;;;2.40;2.20;;;17.50;73.60;;;;;;5032157;28;20025;-70
2023/04/20 03:13:05;;;;;;;5.47;2.58;;;17.50;73.50;;;;;;5032548;28;20022;-70
2023/04/20 03:15:31;;;;;;;2.78;2.58;;;17.50;73.50;;;;;;5032082;28;20017;-70
2023/04/20 03:17:56;;;;;;;2.58;2.20;;;17.50;73.50;;;;;;5033811;28;20384;-70
2023/04/20 03:20:23;;;;;;;3.55;2.45;;;17.50;73.50;;;;;;5036035;28;20075;-70
2023/04/20 03:22:48;;;;;;;2.50;2.30;;;17.50;73.60;;;;;;5034803;28;20021;-70
2023/04/20 03:25:15;;;;;;;2.40;2.20;;;17.50;73.70;;;;;;5035697;28;20033;-70
2023/04/20 03:27:40;;;;;;;3.28;2.38;;;17.50;73.70;;;;;;5034486;28;20025;-70
2023/04/20 03:30:07;;;;;;;2.55;2.35;;;17.50;73.80;;;;;;5035413;28;20384;-70
2023/04/20 03:32:32;;;;;;;2.42;2.22;;;17.50;73.80;;;;;;5034386;28;20026;-70
2023/04/20 03:34:58;;;;;;;4.55;2.38;;;17.50;73.80;;;;;;5034480;28;20036;-70
2023/04/20 03:37:24;;;;;;;5.97;2.60;;;17.50;73.80;;;;;;5035501;28;20022;-70
2023/04/20 03:39:49;;;;;;;2.92;2.20;;;17.50;73.80;;;;;;5035501;28;20033;-70
2023/04/20 03:42:15;;;;;;;2.55;2.35;;;17.50;73.70;;;;;;5035382;28;20066;-70
2023/04/20 03:44:40;;;;;;;3.13;2.45;;;17.50;73.80;;;;;;5035178;28;20059;-70
2023/04/20 03:47:06;;;;;;;2.35;2.17;;;17.50;73.80;;;;;;5035407;28;20033;-70
2023/04/20 03:49:32;;;;;;;2.70;2.35;;;17.50;73.80;;;;;;5035356;28;20425;-70
2023/04/20 03:51:57;;;;;;;2.17;2.00;;;17.50;73.80;;;;;;5034172;28;20022;-70
2023/04/20 03:54:24;;;;;;;3.67;2.47;;;17.50;73.80;;;;;;5034768;28;20125;-70
2023/04/20 03:56:49;;;;;;;2.50;2.10;;;17.50;73.70;;;;;;5033966;28;20499;-70
2023/04/20 03:59:15;;;;;;;3.33;2.50;;;17.50;73.80;;;;;;5035038;28;20030;-70
2023/04/20 04:01:42;;;;;;;2.15;1.95;;;17.50;73.80;;;;;;5035244;28;20032;-70
2023/04/20 04:04:08;;;;;;;3.00;2.30;;;17.50;73.70;;;;;;5034995;28;20029;-70
2023/04/20 04:06:33;;;;;;;2.50;2.30;;;17.50;73.80;;;;;;5034749;28;20017;-70
2023/04/20 04:08:59;;;;;;;2.55;2.10;;;17.50;73.80;;;;;;5034954;28;20030;-70
2023/04/20 04:11:25;;;;;;;2.38;2.17;;;17.50;73.80;;;;;;5034826;28;20499;-70
2023/04/20 04:13:51;;;;;;;2.10;1.90;;;17.50;73.90;;;;;;5034493;28;20022;-70
2023/04/20 04:16:16;;;;;;;2.60;2.40;;;17.50;73.90;;;;;;5035001;28;20032;-70
2023/04/20 04:18:46;;;;;;;2.40;2.20;;;17.50;73.90;;;;;;5034698;28;20044;-70
2023/04/20 04:21:11;;;;;;;2.90;2.40;;;17.50;74.00;;;;;;5033473;28;20076;-70
2023/04/20 04:23:37;;;;;;;1.95;1.85;;;17.50;74.10;;;;;;5034422;28;20033;-71
2023/04/20 04:26:03;;;;;;;2.25;2.05;;;17.50;74.00;;;;;;5034454;28;20032;-71
2023/04/20 04:28:30;;;;;;;2.42;2.20;;;17.50;74.20;;;;;;5033969;28;20109;-71
2023/04/20 04:30:56;;;;;;;2.35;2.10;;;17.40;74.50;;;;;;5033295;28;20021;-70
2023/04/20 04:33:22;;;;;;;2.80;2.00;;;17.40;74.40;;;;;;5034199;28;20025;-71
2023/04/20 04:35:48;;;;;;;2.97;2.30;;;17.50;74.60;;;;;;5034170;28;20096;-71
2023/04/20 04:38:14;;;;;;;2.40;2.15;;;17.40;74.50;;;;;;5033115;28;20030;-70
2023/04/20 04:40:40;;;;;;;2.10;1.90;;;17.40;74.50;;;;;;5032663;28;20028;-70
2023/04/20 04:43:09;;;;;;;2.13;1.88;;;17.40;74.70;;;;;;5034038;28;20029;-70
2023/04/20 04:45:38;;;;;;;2.40;2.20;;;17.50;74.70;;;;;;5032792;28;20128;-70
2023/04/20 04:48:04;;;;;;;4.05;1.90;;;17.40;74.70;;;;;;5032954;28;20029;-70
2023/04/20 04:50:30;;;;;;;2.33;1.80;;;17.50;74.70;;;;;;5034133;28;20021;-70
2023/04/20 04:52:55;;;;;;;2.22;2.10;;;17.50;74.70;;;;;;5034174;28;20028;-70
2023/04/20 04:55:21;;;;;;;2.30;2.10;;;17.40;74.60;;;;;;5033916;28;20045;-70
2023/04/20 04:57:47;;;;;;;2.88;2.00;;;17.40;74.70;;;;;;5032487;28;20029;-70
2023/04/20 05:00:14;;;;;;;2.10;1.90;;;17.40;74.60;;;;;;5032639;28;20112;-70
2023/04/20 05:02:40;;;;;;;2.40;2.10;;;17.50;74.70;;;;;;5032424;28;20049;-70
2023/04/20 05:05:07;;;;;;;2.38;2.17;;;17.40;74.70;;;;;;5033867;28;20484;-70
2023/04/20 05:07:32;;;;;;;2.08;1.88;;;17.40;74.70;;;;;;5032442;28;20030;-70
2023/04/20 05:09:58;;;;;;;3.17;2.15;;;17.40;74.80;;;;;;5033840;28;20029;-70
2023/04/20 05:12:24;;;;;;;2.50;2.30;;;17.40;74.90;;;;;;5033638;28;20022;-70
2023/04/20 05:14:51;;;;;;;3.38;1.70;;;17.40;74.80;;;;;;5032525;28;20496;-70
2023/04/20 05:17:16;;;;;;;1.85;1.70;;;17.40;74.80;;;;;;5033355;28;20029;-70
2023/04/20 05:19:42;;;;;;;2.42;2.00;;;17.40;74.70;;;;;;5033608;28;20029;-70
2023/04/20 05:22:08;;;;;;;2.38;1.83;;;17.40;74.80;;;;;;5032449;28;20898;-70
2023/04/20 05:24:33;;;;;;;2.42;1.83;;;17.40;74.70;;;;;;5032004;28;20021;-70
2023/04/20 05:27:00;;;;;;;2.90;1.90;;;17.40;74.80;;;;;;5033180;28;20076;-70
2023/04/20 05:29:25;;;;;;;2.22;2.03;;;17.40;74.90;;;;;;5032299;28;20075;-70
2023/04/20 05:31:51;;;;;;;3.25;1.90;;;17.40;74.90;;;;;;5032081;28;20033;-70
2023/04/20 05:34:17;;;;;;;2.30;1.77;;;17.40;74.70;;;;;;5033577;28;20087;-70
2023/04/20 05:36:42;;;;;;;2.22;1.98;;;17.40;74.80;;;;;;5033251;28;20079;-70
2023/04/20 05:39:09;;;;;;;2.28;2.00;;;17.40;74.80;;;;;;5031995;28;20091;-70
2023/04/20 05:41:35;;;;;;;2.28;1.80;;;17.40;74.80;;;;;;5032244;28;20037;-70
2023/04/20 05:44:00;;;;;;;2.22;1.80;;;17.40;74.80;;;;;;5031954;28;20033;-70
2023/04/20 05:46:27;;;;;;;2.38;2.10;;;17.30;74.80;;;;;;5033190;28;20113;-70
2023/04/20 05:48:53;;;;;;;2.25;2.03;;;17.40;74.80;;;;;;5033176;28;20496;-70
2023/04/20 05:51:20;;;;;;;3.70;2.10;;;17.40;74.80;;;;;;5033247;28;20067;-70
2023/04/20 05:53:46;;;;;;;2.30;2.10;;;17.40;74.80;;;;;;5033022;28;20029;-70
2023/04/20 05:56:13;;;;;;;3.08;2.22;;;17.40;74.70;;;;;;5032757;28;20041;-70
2023/04/20 05:58:39;;;;;;;2.40;1.80;;;17.40;74.70;;;;;;5032910;28;20028;-70
2023/04/20 06:01:04;;;;;;;9.13;1.90;;;17.40;74.90;;;;;;5032927;28;20029;-70
2023/04/20 06:03:30;;;;;;;1.80;1.70;;;17.40;75.00;;;;;;5032947;28;20056;-70
2023/04/20 06:05:56;;;;;;;2.03;1.80;;;17.40;75.00;;;;;;5032681;28;20164;-70
2023/04/20 06:08:21;;;;;;;2.38;1.63;;;17.40;75.00;;;;;;5033067;28;20561;-69
2023/04/20 06:10:47;;;;;;;1.90;1.80;;;17.40;75.00;;;;;;5032559;28;20448;-70
2023/04/20 06:13:12;;;;;;;2.00;1.80;;;17.40;74.80;;;;;;5031624;28;20021;-69
2023/04/20 06:15:38;;;;;;;1.90;1.58;;;17.40;74.30;;;;;;5032815;28;20026;-69
2023/04/20 06:18:04;;;;;;;3.10;1.73;;;17.30;74.10;;;;;;5032900;28;20091;-69
2023/04/20 06:20:30;;;;;;;1.85;1.58;;;17.30;73.70;;;;;;5032916;28;20029;-69
2023/04/20 06:22:55;;;;;;;2.45;1.77;;;17.30;73.20;;;;;;5032939;28;20021;-69
2023/04/20 06:25:21;;;;;;;2.53;2.13;;;17.40;73.00;;;;;;5032497;28;20032;-69
2023/04/20 06:27:46;;;;;;;2.20;1.60;;;17.40;72.90;;;;;;5032738;28;20018;-69
2023/04/20 06:30:13;;;;;;;2.60;1.70;;;17.30;72.60;;;;;;5032806;28;20108;-69
2023/04/20 06:32:38;;;;;;;2.95;1.98;;;17.30;72.40;;;;;;5032605;28;20109;-69
2023/04/20 06:35:05;;;;;;;3.13;1.52;;;17.30;72.20;;;;;;5032757;28;20097;-69
2023/04/20 06:37:31;;;;;;;2.40;1.58;;;17.30;72.00;;;;;;5032663;28;20021;-69
2023/04/20 06:39:57;;;;;;;2.38;1.42;;;17.30;72.00;;;;;;5032359;28;20027;-69
2023/04/20 06:42:22;;;;;;;8.05;2.53;;;17.30;71.90;;;;;;5031393;28;20030;-69
2023/04/20 06:44:48;;;;;;;8.52;1.98;;;17.30;72.20;;;;;;5032491;28;20041;-69
2023/04/20 06:47:14;;;;;;;7.55;2.13;;;17.30;72.50;;;;;;5031856;28;20030;-68
2023/04/20 06:49:39;;;;;;;7.97;2.45;;;17.30;72.70;;;;;;5032329;28;20034;-69
2023/04/20 06:52:06;;;;;;;2.83;1.85;;;17.30;72.70;;;;;;5033995;28;20067;-68
2023/04/20 06:54:31;;;;;;;3.58;2.00;;;17.30;72.60;;;;;;5034349;28;20049;-69
2023/04/20 06:56:57;;;;;;;3.70;1.73;;;17.30;72.40;;;;;;5034601;28;20075;-69
2023/04/20 06:59:23;;;;;;;7.47;2.40;;;17.30;72.40;;;;;;5034562;28;20057;-69
2023/04/20 07:01:48;;;;;;;8.20;2.22;;;17.30;72.40;;;;;;5035532;28;20379;-69
2023/04/20 07:04:14;;;;;;;6.00;2.10;;;17.20;72.30;;;;;;5033782;28;20040;-69
2023/04/20 07:06:40;;;;;;;8.20;2.50;;;17.20;72.30;;;;;;5033922;28;20022;-69
2023/04/20 07:09:07;;;;;;;6.25;2.20;;;17.30;72.40;;;;;;5034956;28;20104;-69
2023/04/20 07:11:32;;;;;;;6.40;2.38;;;17.20;72.30;;;;;;5035116;28;20100;-69
2023/04/20 07:13:58;;;;;;;4.43;2.00;;;17.30;72.40;;;;;;5033001;28;20133;-69
2023/04/20 07:16:24;;;;;;;6.13;2.10;;;17.20;72.30;;;;;;5035296;28;20510;-69
2023/04/20 07:18:49;;;;;;;6.75;2.15;;;17.20;72.30;;;;;;5035153;28;20091;-69
2023/04/20 07:21:15;;;;;;;2.88;1.75;;;17.20;72.30;;;;;;5035256;28;20100;-69
2023/04/20 07:23:41;;;;;;;3.08;1.80;;;17.20;72.40;;;;;;5035049;28;20076;-69
2023/04/20 07:26:07;;;;;;;6.22;2.20;;;17.20;72.30;;;;;;5035143;28;20542;-69
2023/04/20 07:28:32;;;;;;;4.05;2.10;;;17.20;72.30;;;;;;5035422;28;20026;-69
2023/04/20 07:30:58;;;;;;;2.70;2.00;;;17.20;72.30;;;;;;5035163;28;20021;-69
2023/04/20 07:33:24;;;;;;;3.97;2.00;;;17.20;72.30;;;;;;5035231;28;20026;-69
2023/04/20 07:35:50;;;;;;;4.30;1.70;;;17.20;72.30;;;;;;5033739;28;20468;-69
2023/04/20 07:38:16;;;;;;;5.43;2.20;;;17.20;72.30;;;;;;5034913;28;20022;-69
2023/04/20 07:40:42;;;;;;;3.00;1.88;;;17.20;72.30;;;;;;5031617;28;20093;-69
2023/04/20 07:43:07;;;;;;;3.97;1.67;;;17.20;72.30;;;;;;5014895;28;20113;-69
2023/04/20 07:45:33;;;;;;;4.18;1.85;;;17.20;72.30;;;;;;5015174;28;20018;-69
2023/04/20 07:48:00;;;;;;;4.88;2.25;;;17.20;72.30;;;;;;5033168;28;20037;-69
2023/04/20 07:50:26;;;;;;;3.00;2.10;;;17.20;72.30;;;;;;5033596;28;20112;-69
2023/04/20 07:52:51;;;;;;;4.70;1.80;;;17.20;72.30;;;;;;5034522;28;20105;-69
2023/04/20 07:55:17;;;;;;;4.93;1.83;;;17.20;72.30;;;;;;5034620;28;20061;-69
2023/04/20 07:57:43;;;;;;;2.55;1.60;;;17.20;72.40;;;;;;5034657;28;20025;-69
2023/04/20 08:00:11;;;;;;;2.67;1.50;;;17.10;72.20;;;;;;5033468;28;20033;-69
2023/04/20 08:02:37;;;;;;;4.22;1.92;;;17.20;72.30;;;;;;5033061;28;20431;-69
2023/04/20 08:05:02;;;;;;;3.63;1.45;;;17.20;72.30;;;;;;5033923;28;20022;-69
2023/04/20 08:07:28;;;;;;;3.08;1.50;;;17.10;72.30;;;;;;5032968;28;20057;-69
2023/04/20 08:09:54;;;;;;;1.98;1.30;;;17.20;72.40;;;;;;5034460;28;20028;-69
2023/04/20 08:12:20;;;;;;;2.85;2.10;;;17.20;72.30;;;;;;5034198;28;20124;-69
2023/04/20 08:14:45;;;;;;;2.28;1.75;;;17.20;72.30;;;;;;5034216;28;20048;-69
2023/04/20 08:17:11;;;;;;;3.45;1.60;;;17.20;72.30;;;;;;5034222;28;20420;-69
2023/04/20 08:19:36;;;;;;;4.20;1.65;;;17.20;72.40;;;;;;5034290;28;20036;-69
2023/04/20 08:22:03;;;;;;;2.60;1.55;;;17.10;72.40;;;;;;5033689;28;20488;-69
2023/04/20 08:24:29;;;;;;;2.95;1.50;;;17.20;72.50;;;;;;5033245;28;20032;-69
2023/04/20 08:26:55;;;;;;;3.47;1.80;;;17.20;72.50;;;;;;5033963;28;20029;-69
2023/04/20 08:29:21;;;;;;;2.80;1.60;;;17.10;72.40;;;;;;5034108;28;20557;-69
2023/04/20 08:31:46;;;;;;;2.13;1.65;;;17.10;72.50;;;;;;5033903;28;20025;-69
2023/04/20 08:34:12;;;;;;;4.38;1.70;;;17.20;72.60;;;;;;5032754;28;20025;-69
2023/04/20 08:36:38;;;;;;;3.10;1.63;;;17.10;72.50;;;;;;5033810;28;20076;-69
2023/04/20 08:39:11;;;;;;;1.63;1.20;;;17.20;72.60;;;;;;5033759;28;20504;-69
2023/04/20 08:41:37;;;;;;;4.43;1.70;;;17.10;72.50;;;;;;5033869;28;20049;-69
2023/04/20 08:44:03;;;;;;;1.60;1.30;;;17.10;72.50;;;;;;5032374;28;20500;-69
2023/04/20 08:46:29;;;;;;;4.50;2.20;;;17.10;72.60;;;;;;5032509;28;20033;-69
2023/04/20 08:48:55;;;;;;;4.05;1.70;;;17.10;72.60;;;;;;5032384;28;20018;-69
2023/04/20 08:51:21;;;;;;;2.58;1.65;;;17.10;72.60;;;;;;5033642;28;20387;-69
2023/04/20 08:53:47;;;;;;;2.35;1.65;;;17.10;72.70;;;;;;5032243;28;20092;-69
2023/04/20 08:56:13;;;;;;;2.63;1.50;;;17.10;72.70;;;;;;5033620;28;20061;-69
2023/04/20 08:58:41;;;;;;;2.60;1.73;;;17.10;72.70;;;;;;5033440;28;20073;-69
2023/04/20 09:01:11;;;;;;;2.85;1.58;;;17.10;72.70;;;;;;5032246;28;20036;-69
2023/04/20 09:03:40;;;;;;;2.15;1.40;;;17.20;72.70;;;;;;5015906;28;20032;-69
2023/04/20 09:06:15;;;;;;;2.17;1.40;;;17.10;72.70;;;;;;5033182;28;20055;-69
2023/04/20 09:08:41;;;;;;;2.10;1.30;;;17.10;72.70;;;;;;5032048;28;20104;-69
2023/04/20 09:11:20;;;;;;;2.72;1.20;;;17.10;72.80;;;;;;5033195;28;20030;-69
2023/04/20 09:13:59;;;;;;;2.03;1.35;;;17.10;72.80;;;;;;5017315;28;20057;-69
2023/04/20 09:16:29;;;;;;;1.88;1.30;;;17.10;72.80;;;;;;5031123;28;20075;-69
2023/04/20 09:18:55;;;;;;;1.70;1.40;;;17.10;72.80;;;;;;5032816;28;20492;-69
2023/04/20 09:21:23;;;;;;;1.58;1.23;;;17.10;72.80;;;;;;5031783;28;20503;-69
2023/04/20 09:24:05;;;;;;;1.85;1.27;;;17.10;72.80;;;;;;5015761;28;20021;-69
2023/04/20 09:26:32;;;;;;;2.55;1.50;;;17.10;72.80;;;;;;5031894;28;20029;-69
2023/04/20 09:28:57;;;;;;;1.70;1.40;;;17.10;72.80;;;;;;5031785;28;20017;-69
2023/04/20 09:31:24;;;;;;;2.28;1.30;;;17.10;72.80;;;;;;5032931;28;20044;-69
2023/04/20 09:34:00;;;;;;;1.50;1.08;;;17.10;72.80;;;;;;5032651;28;20064;-69
2023/04/20 09:36:38;;;;;;;2.22;1.30;;;17.10;72.80;;;;;;5015357;28;20032;-69
2023/04/20 09:39:11;;;;;;;2.67;1.33;;;17.10;72.90;;;;;;5031644;28;20029;-69
2023/04/20 09:41:38;;;;;;;1.60;1.40;;;17.10;72.80;;;;;;5031838;28;20446;-69
2023/04/20 09:44:05;;;;;;;3.10;1.33;;;17.10;72.80;;;;;;5031175;28;20021;-69
2023/04/20 09:46:32;;;;;;;1.70;1.42;;;17.10;72.90;;;;;;5031470;28;20108;-69
2023/04/20 09:49:02;;;;;;;1.80;1.30;;;17.10;72.90;;;;;;5032531;28;20013;-69
2023/04/20 09:51:28;;;;;;;2.22;1.48;;;17.10;72.90;;;;;;5015772;28;20053;-69
2023/04/20 09:53:57;;;;;;;1.60;1.27;;;17.10;72.80;;;;;;5032301;28;20041;-69
2023/04/20 09:56:23;;;;;;;2.67;1.60;;;17.10;72.90;;;;;;5031289;28;20037;-69
2023/04/20 09:58:50;;;;;;;3.20;1.25;;;17.10;72.90;;;;;;5032518;28;20526;-69
2023/04/20 10:01:16;;;;;;;1.80;1.20;;;17.10;72.90;;;;;;5031395;28;20484;-69
2023/04/20 10:03:42;;;;;;;2.05;1.50;;;17.10;72.90;;;;;;5032487;28;20144;-69
2023/04/20 10:06:29;;;;;;;2.55;1.30;;;17.10;72.90;;;;;;5014922;28;20038;-69
2023/04/20 10:08:55;;;;;;;2.40;1.30;;;17.10;72.90;;;;;;5031273;28;20021;-69
2023/04/20 10:11:24;;;;;;;2.25;1.20;;;17.10;72.90;;;;;;5031114;28;20100;-69
2023/04/20 10:13:50;;;;;;;2.53;1.10;;;17.10;73.00;;;;;;5030986;28;20029;-69
2023/04/20 10:16:17;;;;;;;2.70;1.25;;;17.10;73.00;;;;;;5031011;28;20393;-69
2023/04/20 10:18:42;;;;;;;2.15;1.30;;;17.10;73.00;;;;;;5030988;28;20017;-69
2023/04/20 10:21:08;;;;;;;1.67;1.50;;;17.10;73.10;;;;;;5031992;28;20040;-69
2023/04/20 10:23:34;;;;;;;1.27;1.13;;;17.10;73.10;;;;;;5032366;28;20022;-69
2023/04/20 10:26:01;;;;;;;1.98;1.40;;;17.10;74.00;;;;;;5031920;28;20037;-69
2023/04/20 10:28:38;;;;;;;2.50;1.38;;;17.10;73.00;;;;;;5019073;28;20014;-69
2023/04/20 10:31:06;;;;;;;2.83;1.10;;;17.10;73.00;;;;;;5035969;28;20028;-69
2023/04/20 10:33:32;;;;;;;2.50;1.20;;;17.10;73.00;;;;;;5036237;28;20104;-69
2023/04/20 10:35:58;;;;;;;1.15;1.00;;;17.10;73.00;;;;;;5035966;28;20148;-69
2023/04/20 10:38:31;;;;;;;1.67;1.20;;;17.10;73.00;;;;;;5036249;28;20384;-69
2023/04/20 10:41:04;;;;;;;3.28;1.40;;;17.10;73.00;;;;;;5035241;28;20025;-69
2023/04/20 10:43:29;;;;;;;1.48;1.20;;;17.10;73.00;;;;;;5019460;28;20025;-69
2023/04/20 10:45:55;;;;;;;1.38;1.00;;;17.10;73.00;;;;;;5035619;28;20148;-69
2023/04/20 10:48:21;;;;;;;2.28;1.50;;;17.10;73.10;;;;;;5034809;28;20047;-69
2023/04/20 10:50:46;;;;;;;2.47;1.33;;;17.10;73.10;;;;;;5034743;28;20053;-69
2023/04/20 10:53:19;;;;;;;1.10;1.00;;;17.10;73.10;;;;;;5034477;28;20436;-69
2023/04/20 10:55:45;;;;;;;2.60;1.42;;;17.10;73.00;;;;;;5035602;28;20511;-69
2023/04/20 10:58:23;;;;;;;1.42;1.27;;;17.10;73.00;;;;;;5036166;28;20096;-69
2023/04/20 11:01:04;;;;;;;1.70;1.10;;;17.10;73.10;;;;;;5034334;28;20079;-69
2023/04/20 11:03:31;;;;;;;1.70;1.30;;;17.10;73.00;;;;;;5034533;28;20088;-69
2023/04/20 11:06:00;;;;;;;2.08;1.10;;;17.10;73.10;;;;;;5034446;28;20463;-69
2023/04/20 11:08:38;;;;;;;1.63;1.10;;;17.10;73.10;;;;;;5035537;28;20021;-69
2023/04/20 11:11:04;;;;;;;2.42;1.45;;;17.10;73.10;;;;;;5035478;28;20045;-69
2023/04/20 11:13:31;;;;;;;1.45;1.08;;;17.10;73.10;;;;;;5034282;28;20033;-69
2023/04/20 11:15:58;;;;;;;1.35;1.25;;;17.10;73.10;;;;;;5035146;28;20021;-69
2023/04/20 11:18:23;;;;;;;1.65;1.15;;;17.10;73.10;;;;;;5035279;28;20018;-69
2023/04/20 11:20:53;;;;;;;2.22;1.13;;;17.10;73.10;;;;;;5033892;28;20087;-69
2023/04/20 11:23:20;;;;;;;1.20;1.00;;;17.10;73.10;;;;;;5034082;28;20014;-69
2023/04/20 11:25:52;;;;;;;1.63;1.25;;;17.10;73.10;;;;;;5017778;28;20025;-69
2023/04/20 11:28:18;;;;;;;1.27;1.00;;;17.10;73.10;;;;;;5034204;28;20018;-69
2023/04/20 11:30:44;;;;;;;1.08;1.00;;;17.10;73.10;;;;;;5033953;28;20033;-69
2023/04/20 11:33:10;;;;;;;1.33;1.23;;;17.10;73.10;;;;;;5034989;28;20029;-69
2023/04/20 11:35:40;;;;;;;1.63;1.27;;;17.10;73.20;;;;;;5035121;28;20391;-69
2023/04/20 11:38:06;;;;;;;2.53;1.17;;;17.10;73.20;;;;;;5034196;28;20033;-69
2023/04/20 11:40:32;;;;;;;0.90;0.90;;;17.10;73.10;;;;;;5033762;28;20026;-69
2023/04/20 11:42:58;;;;;;;1.88;1.10;;;17.10;73.20;;;;;;5034786;28;20049;-69
2023/04/20 11:45:24;;;;;;;2.80;1.10;;;17.10;73.20;;;;;;5034646;28;20029;-69
2023/04/20 11:47:51;;;;;;;2.38;1.00;;;17.10;73.10;;;;;;5017256;28;20499;-69
2023/04/20 11:50:17;;;;;;;1.20;1.10;;;17.10;73.10;;;;;;5034847;28;20503;-69
2023/04/20 11:52:43;;;;;;;1.60;1.20;;;17.10;73.20;;;;;;5034864;28;20053;-69
2023/04/20 11:55:10;;;;;;;1.17;1.08;;;17.10;73.20;;;;;;5033083;28;20428;-69
2023/04/20 11:57:35;;;;;;;2.17;1.10;;;17.10;73.10;;;;;;5034604;28;20104;-69
2023/04/20 12:00:01;;;;;;;1.15;1.05;;;17.10;73.20;;;;;;5034638;28;20609;-69
2023/04/20 12:02:27;;;;;;;1.52;1.15;;;17.10;73.20;;;;;;5034597;28;20049;-69
2023/04/20 12:04:52;;;;;;;0.80;0.80;;;17.10;73.20;;;;;;5034756;28;20032;-69
2023/04/20 12:07:18;;;;;;;1.10;1.00;;;17.10;73.20;;;;;;5034398;28;20067;-69
2023/04/20 12:09:43;;;;;;;1.10;1.00;;;17.10;73.20;;;;;;5034474;28;20025;-69
2023/04/20 12:12:09;;;;;;;1.10;1.00;;;17.10;73.20;;;;;;5032768;28;20423;-69
2023/04/20 12:14:35;;;;;;;1.33;1.08;;;17.10;73.20;;;;;;5034481;28;20403;-69
2023/04/20 12:17:01;;;;;;;2.03;0.98;;;17.10;73.10;;;;;;5034499;28;20036;-69
2023/04/20 12:19:27;;;;;;;1.25;1.15;;;17.10;73.20;;;;;;5033003;28;20095;-69
2023/04/20 12:21:52;;;;;;;1.73;1.10;;;17.10;73.10;;;;;;5034119;28;20025;-69
2023/04/20 12:24:18;;;;;;;1.73;1.05;;;17.10;73.10;;;;;;5034169;28;20108;-69
2023/04/20 12:26:43;;;;;;;1.70;1.00;;;17.10;73.10;;;;;;5033822;28;20062;-69
2023/04/20 12:29:09;;;;;;;1.73;1.10;;;17.10;73.10;;;;;;5034201;28;20436;-69
2023/04/20 12:31:35;;;;;;;1.35;1.00;;;17.10;73.20;;;;;;5016371;28;20514;-69
2023/04/20 12:34:01;;;;;;;1.23;1.02;;;17.10;73.10;;;;;;5034073;28;20104;-69
2023/04/20 12:36:26;;;;;;;1.20;0.98;;;17.10;73.10;;;;;;5016187;28;20053;-69
2023/04/20 12:38:54;;;;;;;1.08;1.08;;;17.10;73.20;;;;;;5034053;28;20029;-69
2023/04/20 12:41:21;;;;;;;1.23;1.13;;;17.10;73.20;;;;;;5033555;28;20078;-69
2023/04/20 12:43:48;;;;;;;1.05;0.95;;;17.10;73.10;;;;;;5032534;28;20492;-69